sensor_id;sensor_type;location;lat;lon;timestamp;P1;durP1;ratioP1;P2;durP2;ratioP2
1991;SDS011;997;48.448;8.924;2022-10-30T04:03:24;12.57;;;5.23;;
1991;SDS011;997;48.448;8.924;2022-10-30T04:05:51;5.70;;;3.90;;
1991;SDS011;997;48.448;8.924;2022-10-30T04:08:17;5.70;;;4.60;;
1991;SDS011;997;48.448;8.924;2022-10-30T04:10:44;6.43;;;3.93;;
1991;SDS011;997;48.448;8.924;2022-10-30T04:13:11;9.67;;;5.00;;
1991;SDS011;997;48.448;8.924;2022-10-30T04:15:41;5.23;;;4.70;;
1991;SDS011;997;48.448;8.924;2022-10-30T04:18:12;9.50;;;5.30;;
1991;SDS011;997;48.448;8.924;2022-10-30T04:20:39;7.30;;;3.83;;
1991;SDS011;997;48.448;8.924;2022-10-30T04:23:05;4.87;;;4.23;;
1991;SDS011;997;48.448;8.924;2022-10-30T04:25:33;10.70;;;5.67;;
1991;SDS011;997;48.448;8.924;2022-10-30T04:27:59;12.10;;;4.80;;
1991;SDS011;997;48.448;8.924;2022-10-30T04:30:25;7.07;;;3.80;;
1991;SDS011;997;48.448;8.924;2022-10-30T04:32:55;6.83;;;4.33;;
1991;SDS011;997;48.448;8.924;2022-10-30T04:35:25;7.70;;;4.97;;
1991;SDS011;997;48.448;8.924;2022-10-30T04:37:54;9.70;;;4.10;;
1991;SDS011;997;48.448;8.924;2022-10-30T04:40:22;5.30;;;4.07;;
1991;SDS011;997;48.448;8.924;2022-10-30T04:42:48;9.33;;;4.90;;
1991;SDS011;997;48.448;8.924;2022-10-30T04:45:14;5.03;;;4.20;;
1991;SDS011;997;48.448;8.924;2022-10-30T04:47:40;7.73;;;4.07;;
1991;SDS011;997;48.448;8.924;2022-10-30T04:50:06;4.50;;;3.73;;
1991;SDS011;997;48.448;8.924;2022-10-30T04:52:32;5.60;;;4.03;;
1991;SDS011;997;48.448;8.924;2022-10-30T04:54:58;7.93;;;4.10;;
1991;SDS011;997;48.448;8.924;2022-10-30T04:57:23;6.97;;;4.33;;
1991;SDS011;997;48.448;8.924;2022-10-30T04:59:49;5.60;;;4.50;;
1991;SDS011;997;48.448;8.924;2022-10-30T05:02:15;7.80;;;4.07;;
1991;SDS011;997;48.448;8.924;2022-10-30T05:04:43;10.17;;;3.90;;
1991;SDS011;997;48.448;8.924;2022-10-30T05:07:09;6.10;;;4.23;;
1991;SDS011;997;48.448;8.924;2022-10-30T05:09:35;9.83;;;4.73;;
1991;SDS011;997;48.448;8.924;2022-10-30T05:12:01;4.50;;;3.73;;
1991;SDS011;997;48.448;8.924;2022-10-30T05:14:31;6.50;;;4.10;;
1991;SDS011;997;48.448;8.924;2022-10-30T05:16:57;5.27;;;4.17;;
1991;SDS011;997;48.448;8.924;2022-10-30T05:19:23;9.03;;;5.37;;
1991;SDS011;997;48.448;8.924;2022-10-30T05:21:49;7.90;;;4.87;;
1991;SDS011;997;48.448;8.924;2022-10-30T05:24:15;6.37;;;4.67;;
1991;SDS011;997;48.448;8.924;2022-10-30T05:26:41;11.40;;;5.27;;
1991;SDS011;997;48.448;8.924;2022-10-30T05:29:07;12.17;;;4.93;;
1991;SDS011;997;48.448;8.924;2022-10-30T05:31:33;13.10;;;4.60;;
1991;SDS011;997;48.448;8.924;2022-10-30T05:33:58;7.30;;;4.50;;
1991;SDS011;997;48.448;8.924;2022-10-30T05:36:24;12.23;;;5.10;;
1991;SDS011;997;48.448;8.924;2022-10-30T05:38:50;12.70;;;5.00;;
1991;SDS011;997;48.448;8.924;2022-10-30T05:41:16;10.73;;;5.97;;
1991;SDS011;997;48.448;8.924;2022-10-30T05:43:41;7.43;;;4.47;;
1991;SDS011;997;48.448;8.924;2022-10-30T05:46:07;8.50;;;3.97;;
1991;SDS011;997;48.448;8.924;2022-10-30T05:48:32;6.00;;;3.93;;
1991;SDS011;997;48.448;8.924;2022-10-30T05:50:58;5.37;;;3.93;;
1991;SDS011;997;48.448;8.924;2022-10-30T05:53:24;8.97;;;5.07;;
1991;SDS011;997;48.448;8.924;2022-10-30T05:55:50;8.37;;;4.50;;
1991;SDS011;997;48.448;8.924;2022-10-30T05:58:19;8.30;;;4.47;;
1991;SDS011;997;48.448;8.924;2022-10-30T06:00:45;6.03;;;4.10;;
1991;SDS011;997;48.448;8.924;2022-10-30T06:03:11;5.97;;;4.50;;
1991;SDS011;997;48.448;8.924;2022-10-30T06:05:37;8.37;;;5.73;;
1991;SDS011;997;48.448;8.924;2022-10-30T06:08:04;5.87;;;3.80;;
1991;SDS011;997;48.448;8.924;2022-10-30T06:10:31;5.57;;;4.70;;
1991;SDS011;997;48.448;8.924;2022-10-30T06:12:58;14.50;;;4.77;;
1991;SDS011;997;48.448;8.924;2022-10-30T06:15:25;8.27;;;4.80;;
1991;SDS011;997;48.448;8.924;2022-10-30T06:17:51;4.77;;;4.30;;
1991;SDS011;997;48.448;8.924;2022-10-30T06:20:18;12.33;;;4.73;;
1991;SDS011;997;48.448;8.924;2022-10-30T06:23:00;7.40;;;4.10;;
1991;SDS011;997;48.448;8.924;2022-10-30T06:25:28;8.83;;;4.57;;
1991;SDS011;997;48.448;8.924;2022-10-30T06:27:55;7.77;;;4.33;;
1991;SDS011;997;48.448;8.924;2022-10-30T06:30:22;6.70;;;4.63;;
1991;SDS011;997;48.448;8.924;2022-10-30T06:32:48;7.53;;;4.60;;
1991;SDS011;997;48.448;8.924;2022-10-30T06:35:14;4.03;;;3.73;;
1991;SDS011;997;48.448;8.924;2022-10-30T06:37:44;8.80;;;4.50;;
1991;SDS011;997;48.448;8.924;2022-10-30T06:40:11;8.53;;;3.80;;
1991;SDS011;997;48.448;8.924;2022-10-30T06:45:09;3.53;;;3.17;;
1991;SDS011;997;48.448;8.924;2022-10-30T06:47:36;4.40;;;3.60;;
1991;SDS011;997;48.448;8.924;2022-10-30T06:50:06;5.67;;;3.77;;
1991;SDS011;997;48.448;8.924;2022-10-30T06:52:33;7.33;;;3.47;;
1991;SDS011;997;48.448;8.924;2022-10-30T06:54:59;8.40;;;3.90;;
1991;SDS011;997;48.448;8.924;2022-10-30T06:57:24;5.83;;;3.77;;
1991;SDS011;997;48.448;8.924;2022-10-30T06:59:50;3.90;;;3.50;;
1991;SDS011;997;48.448;8.924;2022-10-30T07:02:16;6.90;;;3.47;;
1991;SDS011;997;48.448;8.924;2022-10-30T07:04:42;7.07;;;3.63;;
1991;SDS011;997;48.448;8.924;2022-10-30T07:07:09;5.67;;;4.00;;
1991;SDS011;997;48.448;8.924;2022-10-30T07:09:35;8.43;;;4.20;;
1991;SDS011;997;48.448;8.924;2022-10-30T07:12:01;7.33;;;4.60;;
1991;SDS011;997;48.448;8.924;2022-10-30T07:14:27;5.53;;;3.70;;
1991;SDS011;997;48.448;8.924;2022-10-30T07:16:55;6.40;;;4.13;;
1991;SDS011;997;48.448;8.924;2022-10-30T07:19:21;4.87;;;3.37;;
1991;SDS011;997;48.448;8.924;2022-10-30T07:21:48;6.90;;;3.93;;
1991;SDS011;997;48.448;8.924;2022-10-30T07:24:14;9.87;;;4.07;;
1991;SDS011;997;48.448;8.924;2022-10-30T07:26:40;4.23;;;3.10;;
1991;SDS011;997;48.448;8.924;2022-10-30T07:29:06;5.80;;;3.50;;
1991;SDS011;997;48.448;8.924;2022-10-30T07:31:32;5.70;;;3.33;;
1991;SDS011;997;48.448;8.924;2022-10-30T07:33:57;8.80;;;4.63;;
1991;SDS011;997;48.448;8.924;2022-10-30T07:36:23;7.43;;;4.30;;
1991;SDS011;997;48.448;8.924;2022-10-30T07:38:49;9.57;;;4.20;;
1991;SDS011;997;48.448;8.924;2022-10-30T07:41:19;4.90;;;3.90;;
1991;SDS011;997;48.448;8.924;2022-10-30T07:43:45;4.93;;;3.57;;
1991;SDS011;997;48.448;8.924;2022-10-30T07:46:11;8.43;;;3.83;;
1991;SDS011;997;48.448;8.924;2022-10-30T07:48:37;8.30;;;4.07;;
1991;SDS011;997;48.448;8.924;2022-10-30T07:51:03;6.70;;;3.83;;
1991;SDS011;997;48.448;8.924;2022-10-30T07:53:29;6.43;;;3.87;;
1991;SDS011;997;48.448;8.924;2022-10-30T07:55:55;4.63;;;3.80;;
1991;SDS011;997;48.448;8.924;2022-10-30T07:58:21;8.23;;;4.57;;
1991;SDS011;997;48.448;8.924;2022-10-30T08:00:47;5.30;;;4.00;;
1991;SDS011;997;48.448;8.924;2022-10-30T08:03:13;5.30;;;3.60;;
1991;SDS011;997;48.448;8.924;2022-10-30T08:05:39;5.97;;;4.60;;
1991;SDS011;997;48.448;8.924;2022-10-30T08:08:05;4.90;;;4.03;;
1991;SDS011;997;48.448;8.924;2022-10-30T08:10:32;10.50;;;4.10;;
1991;SDS011;997;48.448;8.924;2022-10-30T08:12:58;6.57;;;3.87;;
1991;SDS011;997;48.448;8.924;2022-10-30T08:15:23;6.20;;;3.70;;
1991;SDS011;997;48.448;8.924;2022-10-30T08:17:49;8.30;;;3.73;;
1991;SDS011;997;48.448;8.924;2022-10-30T08:20:17;6.50;;;3.70;;
1991;SDS011;997;48.448;8.924;2022-10-30T08:22:44;6.23;;;5.00;;
1991;SDS011;997;48.448;8.924;2022-10-30T08:25:11;11.53;;;3.57;;
1991;SDS011;997;48.448;8.924;2022-10-30T08:27:37;7.90;;;3.43;;
1991;SDS011;997;48.448;8.924;2022-10-30T08:30:02;5.03;;;3.70;;
1991;SDS011;997;48.448;8.924;2022-10-30T08:32:28;5.50;;;4.40;;
1991;SDS011;997;48.448;8.924;2022-10-30T08:34:54;6.90;;;3.40;;
1991;SDS011;997;48.448;8.924;2022-10-30T08:37:20;8.97;;;4.90;;
1991;SDS011;997;48.448;8.924;2022-10-30T08:39:45;8.80;;;3.77;;
1991;SDS011;997;48.448;8.924;2022-10-30T08:42:11;10.93;;;5.50;;
1991;SDS011;997;48.448;8.924;2022-10-30T08:44:37;9.80;;;4.73;;
1991;SDS011;997;48.448;8.924;2022-10-30T08:47:02;5.37;;;3.97;;
1991;SDS011;997;48.448;8.924;2022-10-30T08:49:28;5.47;;;3.70;;
1991;SDS011;997;48.448;8.924;2022-10-30T08:51:54;6.70;;;4.20;;
1991;SDS011;997;48.448;8.924;2022-10-30T08:54:19;4.90;;;4.07;;
1991;SDS011;997;48.448;8.924;2022-10-30T08:56:45;5.10;;;3.47;;
1991;SDS011;997;48.448;8.924;2022-10-30T08:59:10;6.10;;;3.50;;
1991;SDS011;997;48.448;8.924;2022-10-30T09:01:36;6.87;;;3.80;;
1991;SDS011;997;48.448;8.924;2022-10-30T09:04:02;6.53;;;3.00;;
1991;SDS011;997;48.448;8.924;2022-10-30T09:06:28;3.67;;;3.27;;
1991;SDS011;997;48.448;8.924;2022-10-30T09:08:55;12.47;;;3.40;;
1991;SDS011;997;48.448;8.924;2022-10-30T09:11:21;6.73;;;3.37;;
1991;SDS011;997;48.448;8.924;2022-10-30T09:13:46;8.10;;;4.60;;
1991;SDS011;997;48.448;8.924;2022-10-30T09:16:12;7.50;;;3.47;;
1991;SDS011;997;48.448;8.924;2022-10-30T09:18:38;9.07;;;4.27;;
1991;SDS011;997;48.448;8.924;2022-10-30T09:21:03;3.67;;;3.10;;
1991;SDS011;997;48.448;8.924;2022-10-30T09:23:29;6.13;;;3.83;;
1991;SDS011;997;48.448;8.924;2022-10-30T09:25:58;7.40;;;3.83;;
1991;SDS011;997;48.448;8.924;2022-10-30T09:28:23;8.03;;;5.30;;
1991;SDS011;997;48.448;8.924;2022-10-30T09:30:49;6.13;;;3.63;;
1991;SDS011;997;48.448;8.924;2022-10-30T09:33:20;6.23;;;3.77;;
1991;SDS011;997;48.448;8.924;2022-10-30T09:35:45;7.63;;;4.17;;
1991;SDS011;997;48.448;8.924;2022-10-30T09:38:11;6.30;;;3.63;;
1991;SDS011;997;48.448;8.924;2022-10-30T09:41:02;4.60;;;4.20;;
1991;SDS011;997;48.448;8.924;2022-10-30T09:56:38;5.30;;;3.63;;
1991;SDS011;997;48.448;8.924;2022-10-30T10:02:27;6.40;;;3.60;;
1991;SDS011;997;48.448;8.924;2022-10-30T10:04:56;5.67;;;3.53;;
1991;SDS011;997;48.448;8.924;2022-10-30T10:07:29;7.93;;;5.07;;
1991;SDS011;997;48.448;8.924;2022-10-30T10:09:59;6.27;;;5.17;;
1991;SDS011;997;48.448;8.924;2022-10-30T10:12:42;7.80;;;3.43;;
1991;SDS011;997;48.448;8.924;2022-10-30T10:15:13;6.13;;;4.30;;
1991;SDS011;997;48.448;8.924;2022-10-30T10:18:01;5.20;;;3.43;;
1991;SDS011;997;48.448;8.924;2022-10-30T10:20:35;5.80;;;4.60;;
1991;SDS011;997;48.448;8.924;2022-10-30T10:23:11;7.33;;;4.80;;
1991;SDS011;997;48.448;8.924;2022-10-30T10:25:53;6.50;;;4.30;;
1991;SDS011;997;48.448;8.924;2022-10-30T10:33:24;6.33;;;3.50;;
1991;SDS011;997;48.448;8.924;2022-10-30T10:38:53;7.07;;;4.50;;
1991;SDS011;997;48.448;8.924;2022-10-30T10:44:10;4.63;;;3.63;;
1991;SDS011;997;48.448;8.924;2022-10-30T10:49:43;5.93;;;3.90;;
1991;SDS011;997;48.448;8.924;2022-10-30T10:52:15;5.63;;;3.73;;
1991;SDS011;997;48.448;8.924;2022-10-30T10:54:45;3.80;;;3.50;;
1991;SDS011;997;48.448;8.924;2022-10-30T11:00:07;10.57;;;4.50;;
1991;SDS011;997;48.448;8.924;2022-10-30T11:05:24;3.97;;;3.57;;
1991;SDS011;997;48.448;8.924;2022-10-30T11:07:58;8.50;;;3.77;;
1991;SDS011;997;48.448;8.924;2022-10-30T11:10:40;8.77;;;3.57;;
1991;SDS011;997;48.448;8.924;2022-10-30T11:13:10;7.83;;;3.40;;
1991;SDS011;997;48.448;8.924;2022-10-30T11:15:41;6.37;;;3.63;;
1991;SDS011;997;48.448;8.924;2022-10-30T11:18:17;5.43;;;3.90;;
1991;SDS011;997;48.448;8.924;2022-10-30T11:20:47;4.80;;;3.97;;
1991;SDS011;997;48.448;8.924;2022-10-30T11:25:56;4.90;;;3.60;;
1991;SDS011;997;48.448;8.924;2022-10-30T11:28:41;7.00;;;3.50;;
1991;SDS011;997;48.448;8.924;2022-10-30T11:31:20;5.00;;;3.63;;
1991;SDS011;997;48.448;8.924;2022-10-30T11:33:46;6.60;;;4.60;;
1991;SDS011;997;48.448;8.924;2022-10-30T11:36:16;5.17;;;3.93;;
1991;SDS011;997;48.448;8.924;2022-10-30T11:38:45;7.83;;;4.33;;
1991;SDS011;997;48.448;8.924;2022-10-30T11:41:11;7.50;;;3.97;;
1991;SDS011;997;48.448;8.924;2022-10-30T11:43:39;6.20;;;4.30;;
1991;SDS011;997;48.448;8.924;2022-10-30T11:46:07;4.93;;;2.70;;
1991;SDS011;997;48.448;8.924;2022-10-30T11:48:36;4.93;;;3.13;;
1991;SDS011;997;48.448;8.924;2022-10-30T11:51:04;6.70;;;3.50;;
1991;SDS011;997;48.448;8.924;2022-10-30T11:53:31;6.47;;;3.97;;
1991;SDS011;997;48.448;8.924;2022-10-30T11:56:09;6.07;;;4.03;;
1991;SDS011;997;48.448;8.924;2022-10-30T11:58:43;9.47;;;3.10;;
1991;SDS011;997;48.448;8.924;2022-10-30T12:01:15;4.17;;;2.70;;
1991;SDS011;997;48.448;8.924;2022-10-30T12:03:50;9.27;;;3.87;;
1991;SDS011;997;48.448;8.924;2022-10-30T12:06:18;5.10;;;3.33;;
1991;SDS011;997;48.448;8.924;2022-10-30T12:11:43;6.03;;;3.27;;
1991;SDS011;997;48.448;8.924;2022-10-30T12:14:17;4.40;;;3.77;;
1991;SDS011;997;48.448;8.924;2022-10-30T12:16:44;4.63;;;3.27;;
1991;SDS011;997;48.448;8.924;2022-10-30T12:19:15;4.50;;;3.30;;
1991;SDS011;997;48.448;8.924;2022-10-30T12:21:44;6.53;;;4.03;;
1991;SDS011;997;48.448;8.924;2022-10-30T12:24:19;9.50;;;3.80;;
1991;SDS011;997;48.448;8.924;2022-10-30T12:26:55;4.63;;;3.43;;
1991;SDS011;997;48.448;8.924;2022-10-30T12:29:29;6.43;;;4.20;;
1991;SDS011;997;48.448;8.924;2022-10-30T12:32:06;3.63;;;3.10;;
1991;SDS011;997;48.448;8.924;2022-10-30T12:37:18;5.60;;;3.67;;
1991;SDS011;997;48.448;8.924;2022-10-30T12:42:34;4.83;;;3.47;;
1991;SDS011;997;48.448;8.924;2022-10-30T12:45:20;5.87;;;4.33;;
1991;SDS011;997;48.448;8.924;2022-10-30T12:47:59;8.53;;;4.00;;
1991;SDS011;997;48.448;8.924;2022-10-30T12:53:25;6.10;;;3.47;;
1991;SDS011;997;48.448;8.924;2022-10-30T12:55:59;11.13;;;3.87;;
1991;SDS011;997;48.448;8.924;2022-10-30T13:04:06;5.37;;;3.53;;
1991;SDS011;997;48.448;8.924;2022-10-30T13:12:35;6.23;;;3.30;;
1991;SDS011;997;48.448;8.924;2022-10-30T13:17:48;8.10;;;3.00;;
1991;SDS011;997;48.448;8.924;2022-10-30T13:20:14;8.73;;;2.97;;
1991;SDS011;997;48.448;8.924;2022-10-30T13:22:55;5.70;;;3.40;;
1991;SDS011;997;48.448;8.924;2022-10-30T13:25:34;6.70;;;3.63;;
1991;SDS011;997;48.448;8.924;2022-10-30T13:28:18;8.00;;;3.07;;
1991;SDS011;997;48.448;8.924;2022-10-30T13:31:11;6.53;;;2.80;;
1991;SDS011;997;48.448;8.924;2022-10-30T13:34:00;3.50;;;2.33;;
1991;SDS011;997;48.448;8.924;2022-10-30T13:36:35;7.30;;;2.80;;
1991;SDS011;997;48.448;8.924;2022-10-30T13:39:15;6.70;;;3.57;;
1991;SDS011;997;48.448;8.924;2022-10-30T13:44:52;3.53;;;2.63;;
1991;SDS011;997;48.448;8.924;2022-10-30T13:52:50;3.70;;;2.57;;
1991;SDS011;997;48.448;8.924;2022-10-30T13:55:21;4.70;;;2.40;;
1991;SDS011;997;48.448;8.924;2022-10-30T13:58:01;4.13;;;3.40;;
1991;SDS011;997;48.448;8.924;2022-10-30T14:03:36;3.47;;;2.20;;
1991;SDS011;997;48.448;8.924;2022-10-30T14:06:30;7.07;;;2.97;;
1991;SDS011;997;48.448;8.924;2022-10-30T14:11:47;4.87;;;2.27;;
1991;SDS011;997;48.448;8.924;2022-10-30T14:22:31;6.53;;;3.17;;
1991;SDS011;997;48.448;8.924;2022-10-30T14:24:59;7.20;;;3.43;;
1991;SDS011;997;48.448;8.924;2022-10-30T14:27:26;5.27;;;3.30;;
1991;SDS011;997;48.448;8.924;2022-10-30T14:29:54;6.13;;;4.00;;
1991;SDS011;997;48.448;8.924;2022-10-30T14:37:13;3.80;;;3.43;;
1991;SDS011;997;48.448;8.924;2022-10-30T14:39:49;6.87;;;3.27;;
1991;SDS011;997;48.448;8.924;2022-10-30T14:55:54;3.80;;;2.33;;
1991;SDS011;997;48.448;8.924;2022-10-30T14:58:36;3.40;;;3.10;;
1991;SDS011;997;48.448;8.924;2022-10-30T15:06:46;4.70;;;3.07;;
1991;SDS011;997;48.448;8.924;2022-10-30T15:12:15;4.67;;;3.40;;
1991;SDS011;997;48.448;8.924;2022-10-30T15:15:02;2.40;;;2.20;;
1991;SDS011;997;48.448;8.924;2022-10-30T15:17:37;4.70;;;3.23;;
1991;SDS011;997;48.448;8.924;2022-10-30T15:20:16;4.67;;;3.80;;
1991;SDS011;997;48.448;8.924;2022-10-30T15:22:45;4.60;;;4.20;;
1991;SDS011;997;48.448;8.924;2022-10-30T15:25:15;4.13;;;2.80;;
1991;SDS011;997;48.448;8.924;2022-10-30T15:27:49;3.90;;;2.63;;
1991;SDS011;997;48.448;8.924;2022-10-30T15:30:19;5.20;;;2.70;;
1991;SDS011;997;48.448;8.924;2022-10-30T15:32:47;4.30;;;3.20;;
1991;SDS011;997;48.448;8.924;2022-10-30T15:35:14;4.43;;;3.07;;
1991;SDS011;997;48.448;8.924;2022-10-30T15:40:32;4.47;;;2.37;;
1991;SDS011;997;48.448;8.924;2022-10-30T15:42:59;3.80;;;2.60;;
1991;SDS011;997;48.448;8.924;2022-10-30T15:45:34;2.67;;;2.40;;
1991;SDS011;997;48.448;8.924;2022-10-30T15:48:21;2.53;;;2.33;;
1991;SDS011;997;48.448;8.924;2022-10-30T15:56:09;5.33;;;2.40;;
1991;SDS011;997;48.448;8.924;2022-10-30T15:58:42;3.83;;;2.63;;
1991;SDS011;997;48.448;8.924;2022-10-30T16:01:35;5.03;;;2.83;;
1991;SDS011;997;48.448;8.924;2022-10-30T16:04:20;6.40;;;3.00;;
1991;SDS011;997;48.448;8.924;2022-10-30T16:06:48;3.20;;;2.00;;
1991;SDS011;997;48.448;8.924;2022-10-30T16:09:22;3.20;;;2.60;;
1991;SDS011;997;48.448;8.924;2022-10-30T16:11:49;3.83;;;2.27;;
1991;SDS011;997;48.448;8.924;2022-10-30T16:14:17;2.20;;;1.73;;
1991;SDS011;997;48.448;8.924;2022-10-30T16:16:47;6.50;;;3.03;;
1991;SDS011;997;48.448;8.924;2022-10-30T16:19:22;5.50;;;2.43;;
1991;SDS011;997;48.448;8.924;2022-10-30T16:21:54;4.03;;;3.60;;
1991;SDS011;997;48.448;8.924;2022-10-30T16:24:22;4.03;;;3.20;;
1991;SDS011;997;48.448;8.924;2022-10-30T16:27:01;4.87;;;3.30;;
1991;SDS011;997;48.448;8.924;2022-10-30T16:29:31;6.07;;;3.43;;
1991;SDS011;997;48.448;8.924;2022-10-30T16:31:58;4.23;;;2.77;;
1991;SDS011;997;48.448;8.924;2022-10-30T16:34:25;3.70;;;2.47;;
1991;SDS011;997;48.448;8.924;2022-10-30T16:36:59;3.50;;;2.20;;
1991;SDS011;997;48.448;8.924;2022-10-30T16:39:27;5.10;;;2.47;;
1991;SDS011;997;48.448;8.924;2022-10-30T16:41:55;5.83;;;2.70;;
1991;SDS011;997;48.448;8.924;2022-10-30T16:44:26;7.47;;;4.20;;
1991;SDS011;997;48.448;8.924;2022-10-30T16:46:54;4.87;;;2.60;;
1991;SDS011;997;48.448;8.924;2022-10-30T16:49:23;4.90;;;3.60;;
1991;SDS011;997;48.448;8.924;2022-10-30T16:51:58;5.17;;;3.03;;
1991;SDS011;997;48.448;8.924;2022-10-30T16:54:28;7.07;;;3.00;;
1991;SDS011;997;48.448;8.924;2022-10-30T16:56:57;2.83;;;2.63;;
1991;SDS011;997;48.448;8.924;2022-10-30T16:59:27;3.53;;;2.97;;
1991;SDS011;997;48.448;8.924;2022-10-30T17:01:57;3.70;;;3.40;;
1991;SDS011;997;48.448;8.924;2022-10-30T17:04:29;4.13;;;3.00;;
1991;SDS011;997;48.448;8.924;2022-10-30T17:07:13;4.03;;;3.60;;
1991;SDS011;997;48.448;8.924;2022-10-30T17:09:42;6.40;;;3.53;;
1991;SDS011;997;48.448;8.924;2022-10-30T17:20:02;6.83;;;3.90;;
1991;SDS011;997;48.448;8.924;2022-10-30T17:22:30;6.63;;;3.80;;
1991;SDS011;997;48.448;8.924;2022-10-30T17:24:56;5.40;;;3.37;;
1991;SDS011;997;48.448;8.924;2022-10-30T17:32:55;2.77;;;2.57;;
1991;SDS011;997;48.448;8.924;2022-10-30T17:35:21;3.63;;;2.90;;
1991;SDS011;997;48.448;8.924;2022-10-30T17:37:47;5.97;;;3.50;;
1991;SDS011;997;48.448;8.924;2022-10-30T17:40:13;11.17;;;4.00;;
1991;SDS011;997;48.448;8.924;2022-10-30T17:42:38;4.87;;;3.80;;
1991;SDS011;997;48.448;8.924;2022-10-30T17:45:05;4.87;;;3.50;;
1991;SDS011;997;48.448;8.924;2022-10-30T17:47:34;5.07;;;3.93;;
1991;SDS011;997;48.448;8.924;2022-10-30T17:50:00;7.00;;;3.43;;
1991;SDS011;997;48.448;8.924;2022-10-30T17:52:30;5.40;;;4.03;;
1991;SDS011;997;48.448;8.924;2022-10-30T17:54:56;8.63;;;4.20;;
1991;SDS011;997;48.448;8.924;2022-10-30T17:57:22;5.23;;;4.07;;
1991;SDS011;997;48.448;8.924;2022-10-30T17:59:50;9.83;;;6.90;;
1991;SDS011;997;48.448;8.924;2022-10-30T18:02:17;8.63;;;7.60;;
1991;SDS011;997;48.448;8.924;2022-10-30T18:04:45;7.67;;;4.63;;
1991;SDS011;997;48.448;8.924;2022-10-30T18:07:12;9.33;;;4.20;;
1991;SDS011;997;48.448;8.924;2022-10-30T18:09:39;8.03;;;3.80;;
1991;SDS011;997;48.448;8.924;2022-10-30T18:12:05;4.23;;;3.83;;
1991;SDS011;997;48.448;8.924;2022-10-30T18:14:34;8.63;;;5.60;;
1991;SDS011;997;48.448;8.924;2022-10-30T18:17:00;5.50;;;3.77;;
1991;SDS011;997;48.448;8.924;2022-10-30T18:19:25;7.57;;;3.90;;
1991;SDS011;997;48.448;8.924;2022-10-30T18:21:51;4.10;;;3.70;;
1991;SDS011;997;48.448;8.924;2022-10-30T18:24:18;6.40;;;4.17;;
1991;SDS011;997;48.448;8.924;2022-10-30T18:26:44;4.47;;;4.00;;
1991;SDS011;997;48.448;8.924;2022-10-30T18:29:10;6.83;;;3.37;;
1991;SDS011;997;48.448;8.924;2022-10-30T18:31:37;6.30;;;4.50;;
1991;SDS011;997;48.448;8.924;2022-10-30T18:34:03;4.80;;;4.33;;
1991;SDS011;997;48.448;8.924;2022-10-30T18:36:34;6.43;;;5.10;;
1991;SDS011;997;48.448;8.924;2022-10-30T18:38:59;6.33;;;4.03;;
1991;SDS011;997;48.448;8.924;2022-10-30T18:43:50;5.03;;;4.27;;
1991;SDS011;997;48.448;8.924;2022-10-30T18:46:16;6.57;;;4.40;;
1991;SDS011;997;48.448;8.924;2022-10-30T18:48:42;7.13;;;3.63;;
1991;SDS011;997;48.448;8.924;2022-10-30T18:51:15;6.70;;;5.27;;
1991;SDS011;997;48.448;8.924;2022-10-30T18:53:45;4.10;;;3.70;;
1991;SDS011;997;48.448;8.924;2022-10-30T18:56:21;5.80;;;5.07;;
1991;SDS011;997;48.448;8.924;2022-10-30T18:58:48;8.50;;;4.73;;
1991;SDS011;997;48.448;8.924;2022-10-30T19:01:15;7.47;;;4.70;;
1991;SDS011;997;48.448;8.924;2022-10-30T19:03:41;8.03;;;4.30;;
1991;SDS011;997;48.448;8.924;2022-10-30T19:06:11;5.13;;;4.07;;
1991;SDS011;997;48.448;8.924;2022-10-30T19:08:38;7.37;;;4.77;;
1991;SDS011;997;48.448;8.924;2022-10-30T19:11:04;5.10;;;3.80;;
1991;SDS011;997;48.448;8.924;2022-10-30T19:13:30;6.80;;;5.37;;
1991;SDS011;997;48.448;8.924;2022-10-30T19:15:57;6.43;;;4.80;;
1991;SDS011;997;48.448;8.924;2022-10-30T19:18:26;5.63;;;4.70;;
1991;SDS011;997;48.448;8.924;2022-10-30T19:20:52;5.37;;;4.97;;
1991;SDS011;997;48.448;8.924;2022-10-30T19:23:22;5.17;;;4.77;;
1991;SDS011;997;48.448;8.924;2022-10-30T19:25:51;6.50;;;5.53;;
1991;SDS011;997;48.448;8.924;2022-10-30T19:28:17;7.23;;;6.00;;
1991;SDS011;997;48.448;8.924;2022-10-30T19:30:44;11.10;;;7.17;;
1991;SDS011;997;48.448;8.924;2022-10-30T19:33:14;23.20;;;19.87;;
1991;SDS011;997;48.448;8.924;2022-10-30T19:35:45;18.80;;;15.03;;
1991;SDS011;997;48.448;8.924;2022-10-30T19:38:28;10.77;;;6.77;;
1991;SDS011;997;48.448;8.924;2022-10-30T19:40:55;6.27;;;5.40;;
1991;SDS011;997;48.448;8.924;2022-10-30T19:43:21;7.70;;;6.57;;
1991;SDS011;997;48.448;8.924;2022-10-30T19:45:46;8.70;;;6.10;;
1991;SDS011;997;48.448;8.924;2022-10-30T19:48:16;6.37;;;5.00;;
1991;SDS011;997;48.448;8.924;2022-10-30T19:50:43;5.17;;;3.77;;
1991;SDS011;997;48.448;8.924;2022-10-30T19:53:10;6.00;;;4.00;;
1991;SDS011;997;48.448;8.924;2022-10-30T19:55:37;6.90;;;5.40;;
1991;SDS011;997;48.448;8.924;2022-10-30T19:58:05;9.80;;;4.40;;
1991;SDS011;997;48.448;8.924;2022-10-30T20:00:32;5.40;;;4.10;;
1991;SDS011;997;48.448;8.924;2022-10-30T20:03:00;4.57;;;3.87;;
1991;SDS011;997;48.448;8.924;2022-10-30T20:05:27;6.60;;;4.27;;
1991;SDS011;997;48.448;8.924;2022-10-30T20:07:55;6.93;;;3.30;;
1991;SDS011;997;48.448;8.924;2022-10-30T20:10:27;5.67;;;3.30;;
1991;SDS011;997;48.448;8.924;2022-10-30T20:12:54;4.23;;;3.90;;
1991;SDS011;997;48.448;8.924;2022-10-30T20:15:21;10.43;;;4.10;;
1991;SDS011;997;48.448;8.924;2022-10-30T20:17:48;5.37;;;3.30;;
1991;SDS011;997;48.448;8.924;2022-10-30T20:20:15;5.57;;;4.33;;
1991;SDS011;997;48.448;8.924;2022-10-30T20:22:46;4.00;;;3.60;;
1991;SDS011;997;48.448;8.924;2022-10-30T20:25:11;4.03;;;3.70;;
1991;SDS011;997;48.448;8.924;2022-10-30T20:27:38;3.83;;;3.43;;
1991;SDS011;997;48.448;8.924;2022-10-30T20:30:05;4.10;;;3.20;;
1991;SDS011;997;48.448;8.924;2022-10-30T20:32:31;7.30;;;5.47;;
1991;SDS011;997;48.448;8.924;2022-10-30T20:34:57;5.43;;;4.37;;
1991;SDS011;997;48.448;8.924;2022-10-30T20:37:22;4.03;;;3.70;;
1991;SDS011;997;48.448;8.924;2022-10-30T20:39:49;5.60;;;4.33;;
1991;SDS011;997;48.448;8.924;2022-10-30T20:42:16;5.50;;;4.80;;
1991;SDS011;997;48.448;8.924;2022-10-30T20:44:44;5.00;;;3.80;;
1991;SDS011;997;48.448;8.924;2022-10-30T20:47:10;5.77;;;4.37;;
1991;SDS011;997;48.448;8.924;2022-10-30T20:49:36;4.20;;;3.80;;
1991;SDS011;997;48.448;8.924;2022-10-30T20:52:02;7.77;;;5.43;;
1991;SDS011;997;48.448;8.924;2022-10-30T20:54:27;6.00;;;4.63;;
1991;SDS011;997;48.448;8.924;2022-10-30T20:56:53;6.13;;;4.67;;
1991;SDS011;997;48.448;8.924;2022-10-30T20:59:19;5.40;;;4.53;;
1991;SDS011;997;48.448;8.924;2022-10-30T21:01:45;9.93;;;4.20;;
1991;SDS011;997;48.448;8.924;2022-10-30T21:04:11;5.03;;;4.50;;
1991;SDS011;997;48.448;8.924;2022-10-30T21:06:37;6.77;;;5.00;;
1991;SDS011;997;48.448;8.924;2022-10-30T21:09:02;5.97;;;4.87;;
1991;SDS011;997;48.448;8.924;2022-10-30T21:11:28;6.47;;;5.50;;
1991;SDS011;997;48.448;8.924;2022-10-30T21:13:54;7.80;;;5.93;;
1991;SDS011;997;48.448;8.924;2022-10-30T21:16:20;9.13;;;5.43;;
1991;SDS011;997;48.448;8.924;2022-10-30T21:18:53;6.23;;;5.73;;
1991;SDS011;997;48.448;8.924;2022-10-30T21:21:19;5.80;;;5.30;;
1991;SDS011;997;48.448;8.924;2022-10-30T21:23:45;6.33;;;5.67;;
1991;SDS011;997;48.448;8.924;2022-10-30T21:26:11;6.00;;;5.30;;
1991;SDS011;997;48.448;8.924;2022-10-30T21:28:38;5.80;;;5.30;;
1991;SDS011;997;48.448;8.924;2022-10-30T21:31:05;9.17;;;8.20;;
1991;SDS011;997;48.448;8.924;2022-10-30T21:33:34;9.17;;;7.60;;
1991;SDS011;997;48.448;8.924;2022-10-30T21:36:04;13.20;;;9.17;;
1991;SDS011;997;48.448;8.924;2022-10-30T21:38:32;11.17;;;7.27;;
1991;SDS011;997;48.448;8.924;2022-10-30T21:40:57;7.70;;;7.00;;
1991;SDS011;997;48.448;8.924;2022-10-30T21:43:23;7.13;;;6.03;;
1991;SDS011;997;48.448;8.924;2022-10-30T21:45:49;9.00;;;8.20;;
1991;SDS011;997;48.448;8.924;2022-10-30T21:48:14;8.17;;;7.07;;
1991;SDS011;997;48.448;8.924;2022-10-30T21:50:40;6.23;;;5.63;;
1991;SDS011;997;48.448;8.924;2022-10-30T21:53:06;5.20;;;4.80;;
1991;SDS011;997;48.448;8.924;2022-10-30T21:55:36;11.77;;;6.90;;
1991;SDS011;997;48.448;8.924;2022-10-30T21:58:03;10.97;;;7.03;;
1991;SDS011;997;48.448;8.924;2022-10-30T22:00:28;5.83;;;5.33;;
1991;SDS011;997;48.448;8.924;2022-10-30T22:02:55;6.37;;;5.83;;